Time;durP1;ratioP1;P1;durP2;ratioP2;P2;SDS_P1;SDS_P2;PMS_P1;PMS_P2;Temp;Humidity;BMP_temperature;BMP_pressure;BME280_temperature;BME280_humidity;BME280_pressure;Samples;Min_cycle;Max_cycle;Signal;HPM_P1;HPM_P2
2022/04/06 00:00:17;;;;;;;1.77;1.67;;;5.10;6.20;;;;;;5032602;28;20169;-65
2022/04/06 00:02:43;;;;;;;2.00;1.90;;;5.10;6.50;;;;;;5033250;28;20191;-67
2022/04/06 00:05:10;;;;;;;2.17;2.07;;;5.00;8.40;;;;;;5033310;28;20624;-70
2022/04/06 00:07:37;;;;;;;2.00;1.80;;;5.00;11.30;;;;;;5033083;28;20270;-65
2022/04/06 00:10:07;;;;;;;2.87;2.60;;;5.00;13.70;;;;;;5032535;28;20422;-65
2022/04/06 00:12:34;;;;;;;2.23;2.03;;;5.00;17.90;;;;;;5035698;28;20501;-65
2022/04/06 00:15:00;;;;;;;1.90;1.80;;;5.00;22.20;;;;;;5037048;28;20929;-65
2022/04/06 00:17:25;;;;;;;6.67;2.47;;;5.00;28.60;;;;;;5036996;28;20395;-70
2022/04/06 00:19:51;;;;;;;1.93;1.73;;;4.90;28.50;;;;;;5036253;28;20165;-63
2022/04/06 00:22:17;;;;;;;2.20;2.03;;;4.90;28.50;;;;;;5037120;28;20195;-63
2022/04/06 00:24:42;;;;;;;3.00;2.30;;;4.90;38.10;;;;;;5036997;28;20176;-68
2022/04/06 00:27:08;;;;;;;3.27;2.50;;;5.00;47.20;;;;;;5036896;28;20193;-65
2022/04/06 00:29:33;;;;;;;3.20;3.00;;;4.90;54.90;;;;;;5036068;28;20174;-63
2022/04/06 00:31:59;;;;;;;4.00;3.70;;;4.90;62.40;;;;;;5036649;28;20671;-68
2022/04/06 00:35:28;;;;;;;2.43;2.33;;;4.90;67.30;;;;;;5037011;28;20536;-65
2022/04/06 00:37:11;;;;;;;2.80;2.60;;;4.90;72.60;;;;;;5036538;28;20672;-68
2022/04/06 00:39:36;;;;;;;4.27;3.60;;;5.00;77.40;;;;;;5035904;28;20432;-67
2022/04/06 00:42:03;;;;;;;2.77;2.13;;;4.90;77.30;;;;;;5036476;28;20234;-70
2022/04/06 00:44:28;;;;;;;4.80;2.80;;;4.90;84.30;;;;;;5036677;28;20174;-71
2022/04/06 00:46:54;;;;;;;3.40;3.10;;;5.00;91.50;;;;;;5035235;28;20442;-70
2022/04/06 00:49:20;;;;;;;5.17;3.30;;;4.90;92.70;;;;;;5035948;28;20506;-65
2022/04/06 00:51:48;;;;;;;3.00;2.80;;;4.90;95.50;;;;;;5036233;28;20214;-71
2022/04/06 00:54:15;;;;;;;3.80;2.83;;;4.90;99.20;;;;;;5036437;28;20548;-63
2022/04/06 00:56:42;;;;;;;9.30;3.20;;;4.90;99.90;;;;;;5036377;28;20408;-71
2022/04/06 00:59:08;;;;;;;4.00;3.70;;;4.90;99.90;;;;;;5035582;28;20398;-69
2022/04/06 01:01:34;;;;;;;3.57;3.27;;;4.90;99.90;;;;;;5035952;28;20442;-71
2022/04/06 01:04:00;;;;;;;3.90;3.60;;;4.90;99.90;;;;;;5034935;28;20421;-65
2022/04/06 01:06:26;;;;;;;5.03;4.23;;;4.90;99.90;;;;;;5036201;28;20954;-67
2022/04/06 01:08:52;;;;;;;3.20;3.00;;;4.90;99.90;;;;;;5035305;28;20234;-66
2022/04/06 01:11:19;;;;;;;4.13;3.73;;;4.90;99.90;;;;;;5036063;28;20170;-72
2022/04/06 01:13:45;;;;;;;3.80;3.40;;;4.90;99.90;;;;;;5036076;28;20752;-65
2022/04/06 01:16:11;;;;;;;3.70;3.40;;;4.90;99.90;;;;;;5035913;28;20475;-65
2022/04/06 01:18:36;;;;;;;4.60;3.97;;;4.90;99.90;;;;;;5035434;28;20409;-65
2022/04/06 01:21:03;;;;;;;4.17;3.87;;;4.90;99.90;;;;;;5035835;28;20195;-72
2022/04/06 01:23:30;;;;;;;3.97;3.57;;;4.90;99.90;;;;;;5035449;28;20166;-66
2022/04/06 01:25:56;;;;;;;3.77;3.47;;;5.00;99.90;;;;;;5035753;28;20901;-65
2022/04/06 01:28:21;;;;;;;4.20;3.67;;;5.00;99.90;;;;;;5034162;28;20461;-72
2022/04/06 01:30:47;;;;;;;3.90;3.60;;;5.00;99.90;;;;;;5035186;28;20167;-71
2022/04/06 01:33:13;;;;;;;3.43;3.23;;;5.00;99.90;;;;;;5035563;28;20181;-66
2022/04/06 01:35:41;;;;;;;3.63;3.10;;;5.00;99.90;;;;;;5035625;28;20522;-72
2022/04/06 01:38:07;;;;;;;3.93;3.63;;;5.00;99.90;;;;;;5035424;28;20170;-71
2022/04/06 01:40:33;;;;;;;3.97;3.67;;;5.00;99.90;;;;;;5034801;28;20744;-66
2022/04/06 01:42:59;;;;;;;7.17;3.93;;;5.00;99.90;;;;;;5035483;28;20914;-72
2022/04/06 01:45:24;;;;;;;3.83;3.53;;;5.00;99.90;;;;;;5035705;28;20413;-66
2022/04/06 01:47:50;;;;;;;4.07;3.67;;;5.00;99.90;;;;;;5035500;28;20504;-66
2022/04/06 01:53:00;;;;;;;4.17;3.87;;;5.00;99.90;;;;;;5035287;28;20265;-67
2022/04/06 01:55:26;;;;;;;3.83;3.53;;;5.00;99.90;;;;;;5035504;28;20793;-72
2022/04/06 01:57:51;;;;;;;3.80;3.40;;;5.00;99.90;;;;;;5035392;28;20176;-72
2022/04/06 02:00:18;;;;;;;4.63;4.30;;;5.10;99.90;;;;;;5034433;28;20537;-73
2022/04/06 02:02:50;;;;;;;5.57;4.13;;;5.10;99.90;;;;;;5034971;28;20250;-72
2022/04/06 02:05:19;;;;;;;4.37;3.97;;;5.10;99.90;;;;;;5035055;28;20394;-67
2022/04/06 02:07:46;;;;;;;3.90;3.50;;;5.00;99.90;;;;;;5034977;28;20442;-72
2022/04/06 02:10:12;;;;;;;3.90;3.40;;;5.00;99.90;;;;;;5034241;28;20416;-66
2022/04/06 02:12:39;;;;;;;3.77;3.47;;;5.10;99.90;;;;;;5034809;28;20426;-72
2022/04/06 02:15:06;;;;;;;3.70;3.40;;;5.00;99.90;;;;;;5034999;28;20399;-73
2022/04/06 02:17:31;;;;;;;3.90;3.60;;;5.10;99.90;;;;;;5034806;28;20489;-72
2022/04/06 02:19:57;;;;;;;4.30;3.90;;;5.10;99.90;;;;;;5034090;28;20497;-66
2022/04/06 02:22:23;;;;;;;6.93;3.77;;;5.00;99.90;;;;;;5034570;28;20191;-66
2022/04/06 02:24:49;;;;;;;3.20;2.90;;;5.10;99.90;;;;;;5034643;28;20182;-66
2022/04/06 02:27:14;;;;;;;4.47;3.57;;;5.10;99.90;;;;;;5034627;28;20194;-72
2022/04/06 02:29:41;;;;;;;3.77;3.47;;;5.10;99.90;;;;;;5034053;28;20241;-66
2022/04/06 02:32:07;;;;;;;3.80;3.50;;;5.00;99.90;;;;;;5033172;28;20425;-66
2022/04/06 02:34:33;;;;;;;4.83;4.30;;;5.10;99.90;;;;;;5033573;28;20406;-67
2022/04/06 02:36:59;;;;;;;4.27;3.90;;;5.20;99.90;;;;;;5034394;28;20871;-73
2022/04/06 02:39:25;;;;;;;4.97;4.40;;;5.20;99.90;;;;;;5032425;28;20571;-72
2022/04/06 02:41:51;;;;;;;4.13;3.80;;;5.20;99.90;;;;;;5034398;28;20424;-66
2022/04/06 02:44:17;;;;;;;4.77;4.30;;;5.20;99.90;;;;;;5034370;28;20181;-67
2022/04/06 02:46:45;;;;;;;5.17;4.20;;;5.20;99.90;;;;;;5034199;28;20176;-73
2022/04/06 02:49:10;;;;;;;4.40;4.03;;;5.30;99.90;;;;;;5033728;28;20403;-67
2022/04/06 02:51:36;;;;;;;5.23;4.70;;;5.30;99.90;;;;;;5034178;28;20426;-66
2022/04/06 02:54:02;;;;;;;4.97;4.47;;;5.30;99.90;;;;;;5034171;28;20167;-72
2022/04/06 02:56:28;;;;;;;4.33;3.93;;;5.30;99.90;;;;;;5034201;28;20186;-67
2022/04/06 02:58:53;;;;;;;4.90;4.30;;;5.40;99.90;;;;;;5033400;28;20163;-73
2022/04/06 03:01:20;;;;;;;6.10;5.20;;;5.40;99.90;;;;;;5034075;28;20174;-73
2022/04/06 03:03:46;;;;;;;6.80;4.83;;;5.50;99.90;;;;;;5033930;28;20985;-73
2022/04/06 03:06:12;;;;;;;4.83;4.43;;;5.50;99.90;;;;;;5034144;28;20407;-73
2022/04/06 03:08:37;;;;;;;5.80;5.20;;;5.60;99.90;;;;;;5033102;28;20198;-72
2022/04/06 03:11:03;;;;;;;7.67;5.03;;;5.60;99.90;;;;;;5033776;28;20891;-72
2022/04/06 03:13:29;;;;;;;5.13;4.70;;;5.70;1.00;;;;;;5033802;28;20185;-67
2022/04/06 03:15:56;;;;;;;5.57;5.10;;;5.80;1.00;;;;;;5032582;28;20171;-67
2022/04/06 03:18:21;;;;;;;5.00;4.37;;;5.80;1.00;;;;;;5033698;28;20822;-74
2022/04/06 03:20:48;;;;;;;5.00;4.27;;;5.90;1.00;;;;;;5033111;28;20407;-69
2022/04/06 03:23:15;;;;;;;4.47;3.80;;;6.00;1.00;;;;;;5032541;28;20564;-68
2022/04/06 03:25:41;;;;;;;5.20;4.00;;;6.10;1.00;;;;;;5033777;28;20810;-74
2022/04/06 03:28:07;;;;;;;5.83;4.13;;;6.20;1.00;;;;;;5033569;28;20450;-73
2022/04/06 03:30:33;;;;;;;6.20;4.00;;;6.30;1.00;;;;;;5032929;28;20460;-72
2022/04/06 03:32:58;;;;;;;4.00;3.60;;;6.40;1.00;;;;;;5033324;28;20656;-68
2022/04/06 03:35:25;;;;;;;3.73;3.43;;;6.50;1.00;;;;;;5033439;28;20178;-73
2022/04/06 03:37:51;;;;;;;3.80;3.50;;;6.70;1.00;;;;;;5033431;28;20218;-73
2022/04/06 03:40:17;;;;;;;3.97;3.10;;;6.80;1.00;;;;;;5032817;28;20903;-73
2022/04/06 03:42:42;;;;;;;2.93;2.73;;;6.90;1.00;;;;;;5033430;28;20425;-73
2022/04/06 03:45:09;;;;;;;8.67;4.27;;;7.00;1.00;;;;;;5033118;28;20695;-68
2022/04/06 03:47:36;;;;;;;6.80;4.00;;;7.20;1.00;;;;;;5033253;28;20256;-68
2022/04/06 03:50:03;;;;;;;6.63;4.50;;;7.20;1.00;;;;;;5032710;28;20405;-67
2022/04/06 03:52:29;;;;;;;4.40;4.10;;;7.30;1.00;;;;;;5033346;28;20926;-73
2022/04/06 03:54:55;;;;;;;6.40;5.50;;;7.30;1.00;;;;;;5033333;28;20473;-74
2022/04/06 03:57:21;;;;;;;5.73;4.87;;;7.30;1.00;;;;;;5033239;28;20183;-68
2022/04/06 03:59:47;;;;;;;13.53;6.07;;;7.40;1.00;;;;;;5032622;28;20394;-73
2022/04/06 04:02:12;;;;;;;10.90;5.97;;;7.40;1.00;;;;;;5033263;28;20418;-73
2022/04/06 04:04:38;;;;;;;11.50;5.97;;;7.40;1.00;;;;;;5033347;28;20643;-67
2022/04/06 04:07:06;;;;;;;12.77;6.43;;;7.50;1.00;;;;;;5033169;28;20198;-67
2022/04/06 04:09:33;;;;;;;9.23;5.33;;;7.50;1.00;;;;;;5032371;28;20671;-74
2022/04/06 04:11:58;;;;;;;13.10;7.30;;;7.50;1.00;;;;;;5032085;28;20441;-67
2022/04/06 04:14:24;;;;;;;11.43;6.80;;;7.60;1.00;;;;;;5033129;28;20399;-68
2022/04/06 04:16:49;;;;;;;14.03;6.33;;;7.60;1.00;;;;;;5033166;28;20243;-67
2022/04/06 04:19:19;;;;;;;5.13;4.70;;;7.60;1.00;;;;;;5032381;28;20168;-67
2022/04/06 04:21:44;;;;;;;13.83;7.00;;;7.60;1.00;;;;;;5032926;28;20190;-74
2022/04/06 04:24:10;;;;;;;11.77;6.00;;;7.60;1.00;;;;;;5033168;28;20790;-67
2022/04/06 04:26:38;;;;;;;12.83;4.70;;;7.60;1.00;;;;;;5033039;28;20218;-68
2022/04/06 04:29:05;;;;;;;7.70;6.40;;;7.60;1.00;;;;;;5032211;28;20237;-74
2022/04/06 04:31:31;;;;;;;9.53;6.20;;;7.60;1.00;;;;;;5032784;28;20450;-67
2022/04/06 04:33:57;;;;;;;17.87;7.50;;;7.60;1.00;;;;;;5032872;28;20907;-74
2022/04/06 04:36:23;;;;;;;10.97;6.47;;;7.60;1.00;;;;;;5032850;28;20950;-67
2022/04/06 04:38:49;;;;;;;9.83;7.60;;;7.60;1.00;;;;;;5032337;28;20517;-67
2022/04/06 04:41:16;;;;;;;11.43;6.93;;;7.60;1.00;;;;;;5033065;28;20175;-68
2022/04/06 04:43:42;;;;;;;9.67;8.07;;;7.70;1.00;;;;;;5032667;28;20394;-73
2022/04/06 04:46:07;;;;;;;16.17;7.67;;;7.70;1.00;;;;;;5033139;28;20452;-74
2022/04/06 04:48:34;;;;;;;12.53;7.77;;;7.70;1.00;;;;;;5032174;28;20664;-67
2022/04/06 04:51:00;;;;;;;21.27;9.07;;;7.70;1.00;;;;;;5031685;28;20492;-74
2022/04/06 04:53:26;;;;;;;8.90;7.37;;;7.70;1.00;;;;;;5032700;28;20462;-72
2022/04/06 04:55:53;;;;;;;15.03;8.00;;;7.70;1.00;;;;;;5032810;28;20175;-70
2022/04/06 04:58:19;;;;;;;12.77;6.20;;;7.80;1.00;;;;;;5034670;28;20174;-74
2022/04/06 05:00:46;;;;;;;11.93;7.43;;;7.90;1.00;;;;;;5035653;28;20510;-67
2022/04/06 05:03:12;;;;;;;21.17;7.63;;;7.90;1.00;;;;;;5036287;28;20484;-67
2022/04/06 05:05:40;;;;;;;10.53;7.53;;;7.80;1.00;;;;;;5036258;28;20398;-74
2022/04/06 05:08:06;;;;;;;10.83;7.37;;;7.90;1.00;;;;;;5036064;28;20450;-67
2022/04/06 05:10:32;;;;;;;10.70;8.70;;;7.80;1.00;;;;;;5035310;28;20434;-74
2022/04/06 05:12:57;;;;;;;12.40;7.77;;;7.80;1.00;;;;;;5036133;28;20422;-73
2022/04/06 05:15:23;;;;;;;11.87;7.60;;;7.80;1.00;;;;;;5036068;28;20168;-73
2022/04/06 05:17:49;;;;;;;12.90;8.83;;;7.90;1.00;;;;;;5035924;28;20173;-72
2022/04/06 05:20:15;;;;;;;13.93;7.93;;;7.90;1.00;;;;;;5035287;28;20662;-72
2022/04/06 05:22:40;;;;;;;11.13;7.47;;;7.90;1.00;;;;;;5034625;28;20337;-68
2022/04/06 05:25:07;;;;;;;12.80;8.40;;;7.90;1.00;;;;;;5035871;28;20402;-72
2022/04/06 05:27:54;;;;;;;12.83;8.07;;;7.90;1.00;;;;;;5035776;28;20192;-68
2022/04/06 05:30:22;;;;;;;13.43;8.27;;;7.90;1.00;;;;;;5034960;28;20946;-74
2022/04/06 05:32:50;;;;;;;11.40;8.10;;;7.90;1.00;;;;;;5035741;28;20422;-68
2022/04/06 05:35:16;;;;;;;13.40;7.77;;;7.90;1.00;;;;;;5035613;28;20904;-73
2022/04/06 05:37:43;;;;;;;18.90;9.80;;;7.90;1.00;;;;;;5035529;28;20391;-73
2022/04/06 05:40:11;;;;;;;17.00;7.83;;;7.90;1.00;;;;;;5034762;28;20505;-73
2022/04/06 05:42:38;;;;;;;12.13;8.60;;;8.00;1.00;;;;;;5035333;28;20787;-73
2022/04/06 05:45:06;;;;;;;14.90;8.53;;;7.90;1.00;;;;;;5035506;28;20413;-73
2022/04/06 05:47:32;;;;;;;13.00;8.10;;;8.00;1.00;;;;;;5035388;28;20428;-67
2022/04/06 05:49:58;;;;;;;19.20;8.83;;;8.00;1.00;;;;;;5034655;28;20417;-73
2022/04/06 05:52:24;;;;;;;14.53;10.00;;;8.00;1.00;;;;;;5034262;28;20430;-73
2022/04/06 05:54:51;;;;;;;17.30;8.73;;;8.00;1.00;;;;;;5035277;28;20402;-68
2022/04/06 05:57:20;;;;;;;11.00;7.10;;;8.10;1.00;;;;;;5035423;28;20409;-67
2022/04/06 05:59:46;;;;;;;14.83;8.97;;;8.10;1.00;;;;;;5034515;28;20409;-74
2022/04/06 06:02:12;;;;;;;11.67;8.03;;;8.10;1.00;;;;;;5033818;28;20989;-68
2022/04/06 06:04:38;;;;;;;16.40;8.47;;;8.10;1.00;;;;;;5035144;28;20402;-74
2022/04/06 06:07:07;;;;;;;14.00;9.43;;;8.20;1.00;;;;;;5035047;28;20414;-73
2022/04/06 06:09:34;;;;;;;16.93;9.13;;;8.20;1.00;;;;;;5033334;28;20422;-73
2022/04/06 06:12:00;;;;;;;15.43;9.00;;;8.10;1.00;;;;;;5034792;28;20419;-73
2022/04/06 06:14:27;;;;;;;12.57;8.63;;;8.20;1.00;;;;;;5034945;28;20403;-73
2022/04/06 06:16:54;;;;;;;18.93;9.90;;;8.20;1.00;;;;;;5033674;28;20438;-68
2022/04/06 06:19:19;;;;;;;21.57;11.43;;;8.20;1.00;;;;;;5034136;28;20408;-73
2022/04/06 06:21:45;;;;;;;18.87;11.03;;;8.20;1.00;;;;;;5034783;28;20588;-67
2022/04/06 06:24:11;;;;;;;21.27;11.43;;;8.20;1.00;;;;;;5034744;28;20198;-67
2022/04/06 06:26:39;;;;;;;13.63;10.10;;;8.20;1.00;;;;;;5033607;28;20484;-67
2022/04/06 06:29:05;;;;;;;23.10;11.73;;;8.20;1.00;;;;;;5033957;28;20486;-73
2022/04/06 06:31:31;;;;;;;14.50;9.73;;;8.30;1.00;;;;;;5033703;28;20463;-67
2022/04/06 06:33:58;;;;;;;17.90;10.40;;;8.20;1.00;;;;;;5034489;28;20170;-74
2022/04/06 06:36:24;;;;;;;19.63;10.90;;;8.30;1.00;;;;;;5034394;28;20399;-68
2022/04/06 06:38:53;;;;;;;20.10;10.73;;;8.20;1.00;;;;;;5033722;28;20454;-73
2022/04/06 06:41:19;;;;;;;14.33;9.53;;;8.30;1.00;;;;;;5034323;28;20413;-67
2022/04/06 06:43:48;;;;;;;22.50;11.50;;;8.30;1.00;;;;;;5034322;28;20406;-67
2022/04/06 06:46:14;;;;;;;18.90;11.27;;;8.30;1.00;;;;;;5034366;28;20407;-67
2022/04/06 06:48:40;;;;;;;17.93;11.47;;;8.30;1.00;;;;;;5033298;28;20555;-67
2022/04/06 06:51:05;;;;;;;10.10;8.10;;;8.30;1.00;;;;;;5034203;28;20935;-68
2022/04/06 06:53:31;;;;;;;14.63;9.63;;;8.30;1.00;;;;;;5034290;28;20558;-67
2022/04/06 06:55:57;;;;;;;13.80;9.60;;;8.30;1.00;;;;;;5032999;28;20226;-73
2022/04/06 06:58:22;;;;;;;13.87;10.07;;;8.30;1.00;;;;;;5032869;28;20529;-68
2022/04/06 07:00:48;;;;;;;19.10;9.10;;;8.30;1.00;;;;;;5033617;28;20255;-68
2022/04/06 07:03:14;;;;;;;12.33;8.67;;;8.30;1.00;;;;;;5034022;28;20196;-73
2022/04/06 07:05:39;;;;;;;13.30;8.03;;;8.30;1.00;;;;;;5034159;28;20183;-74
2022/04/06 07:08:06;;;;;;;13.63;8.90;;;8.30;1.00;;;;;;5032499;28;20199;-74
2022/04/06 07:10:32;;;;;;;13.03;9.20;;;8.30;1.00;;;;;;5031928;28;20633;-74
2022/04/06 07:12:58;;;;;;;14.77;10.00;;;8.20;1.00;;;;;;5033751;28;20433;-68
2022/04/06 07:15:25;;;;;;;11.67;7.83;;;8.20;1.00;;;;;;5033943;28;20217;-74
2022/04/06 07:17:55;;;;;;;9.30;8.03;;;8.30;1.00;;;;;;5033737;28;20406;-75
2022/04/06 07:20:22;;;;;;;13.40;8.90;;;8.30;1.00;;;;;;5032904;28;20457;-74
2022/04/06 07:22:48;;;;;;;12.30;6.83;;;8.20;1.00;;;;;;5032285;28;20834;-75
2022/04/06 07:25:14;;;;;;;11.20;7.10;;;8.30;1.00;;;;;;5033655;28;20409;-69
2022/04/06 07:27:40;;;;;;;9.87;7.50;;;8.20;1.00;;;;;;5033611;28;20234;-70
2022/04/06 07:30:08;;;;;;;10.77;7.47;;;8.30;1.00;;;;;;5032998;28;20434;-70
2022/04/06 07:32:35;;;;;;;8.57;7.30;;;8.30;1.00;;;;;;5032249;28;20195;-70
2022/04/06 07:35:03;;;;;;;9.57;7.50;;;8.30;1.00;;;;;;5033428;28;20873;-74
2022/04/06 07:37:43;;;;;;;9.23;8.17;;;8.30;1.00;;;;;;5033512;28;20410;-70
2022/04/06 07:40:12;;;;;;;10.70;6.30;;;8.30;1.00;;;;;;5032823;28;20497;-69
2022/04/06 07:42:39;;;;;;;9.20;7.50;;;8.30;1.00;;;;;;5033328;28;20915;-74
2022/04/06 07:45:07;;;;;;;5.83;5.33;;;8.30;1.00;;;;;;5033225;28;20402;-72
2022/04/06 07:47:34;;;;;;;7.43;6.60;;;8.30;1.00;;;;;;5033306;28;20531;-74
2022/04/06 07:50:01;;;;;;;14.30;6.37;;;8.30;1.00;;;;;;5032690;28;20381;-69
2022/04/06 07:52:27;;;;;;;6.30;4.80;;;8.30;1.00;;;;;;5033353;28;20433;-73
2022/04/06 07:54:53;;;;;;;7.80;5.97;;;8.30;1.00;;;;;;5033217;28;20441;-69
2022/04/06 07:57:24;;;;;;;8.37;6.73;;;8.30;1.00;;;;;;5033066;28;20820;-68
2022/04/06 07:59:50;;;;;;;7.23;6.00;;;8.40;1.00;;;;;;5032640;28;20405;-68
2022/04/06 08:02:16;;;;;;;7.13;6.23;;;8.30;1.00;;;;;;5033291;28;20497;-69
2022/04/06 08:04:42;;;;;;;12.53;6.87;;;8.30;1.00;;;;;;5032301;28;20418;-68
2022/04/06 08:07:07;;;;;;;10.10;5.50;;;8.30;1.00;;;;;;5033201;28;20568;-73
2022/04/06 08:09:33;;;;;;;7.77;6.97;;;8.40;1.00;;;;;;5032426;28;20908;-68
2022/04/06 08:12:00;;;;;;;9.57;6.77;;;8.30;1.00;;;;;;5033133;28;20183;-69
2022/04/06 08:14:26;;;;;;;7.73;6.77;;;8.40;1.00;;;;;;5031858;28;20418;-70
2022/04/06 08:16:52;;;;;;;5.60;4.83;;;8.40;1.00;;;;;;5033315;28;20748;-70
2022/04/06 08:19:17;;;;;;;8.17;6.70;;;8.40;1.00;;;;;;5032306;28;20183;-69
2022/04/06 08:21:43;;;;;;;6.00;5.50;;;8.30;1.00;;;;;;5033020;28;20195;-69
2022/04/06 08:24:09;;;;;;;8.53;5.93;;;8.30;1.00;;;;;;5033248;28;20171;-69
2022/04/06 08:26:35;;;;;;;6.70;6.00;;;8.40;1.00;;;;;;5033049;28;20617;-74
2022/04/06 08:29:01;;;;;;;6.33;5.73;;;8.40;1.00;;;;;;5032273;28;20199;-69
2022/04/06 08:31:26;;;;;;;5.63;5.13;;;8.40;1.00;;;;;;5032838;28;20753;-73
2022/04/06 08:33:52;;;;;;;8.13;5.30;;;8.40;1.00;;;;;;5035905;28;20230;-74
2022/04/06 08:36:18;;;;;;;5.90;5.40;;;8.40;1.00;;;;;;5035751;28;20165;-74
2022/04/06 08:38:44;;;;;;;6.30;5.70;;;8.40;1.00;;;;;;5036121;28;20246;-70
2022/04/06 08:41:09;;;;;;;8.17;5.50;;;8.40;1.00;;;;;;5036530;28;20899;-74
2022/04/06 08:43:35;;;;;;;8.97;6.40;;;8.40;1.00;;;;;;5035223;28;20636;-70
2022/04/06 08:46:02;;;;;;;7.70;5.57;;;8.50;1.00;;;;;;5035340;28;20238;-69
2022/04/06 08:48:31;;;;;;;6.57;5.40;;;8.50;1.00;;;;;;5036341;28;20731;-71
2022/04/06 08:51:00;;;;;;;8.20;5.80;;;8.60;1.00;;;;;;5035237;28;20406;-69
2022/04/06 08:53:25;;;;;;;6.40;5.80;;;8.60;1.00;;;;;;5036301;28;20426;-73
2022/04/06 08:55:51;;;;;;;8.10;6.40;;;8.50;1.00;;;;;;5036259;28;20411;-73
2022/04/06 08:58:16;;;;;;;6.63;5.60;;;8.50;1.00;;;;;;5035352;28;20180;-73
2022/04/06 09:00:42;;;;;;;5.73;5.07;;;8.60;1.00;;;;;;5035700;28;20687;-73
2022/04/06 09:03:08;;;;;;;9.10;6.27;;;8.60;1.00;;;;;;5036347;28;20200;-74
2022/04/06 09:05:34;;;;;;;5.80;5.40;;;8.70;1.00;;;;;;5036336;28;20172;-73
2022/04/06 09:08:02;;;;;;;6.37;5.37;;;8.70;1.00;;;;;;5036176;28;20682;-75
2022/04/06 09:10:31;;;;;;;5.27;4.30;;;8.70;1.00;;;;;;5035502;28;20437;-69
2022/04/06 09:13:07;;;;;;;4.40;4.00;;;8.70;1.00;;;;;;5036122;28;20419;-73
2022/04/06 09:15:32;;;;;;;4.80;4.30;;;8.60;1.00;;;;;;5036046;28;20486;-74
2022/04/06 09:18:01;;;;;;;6.67;4.87;;;8.70;1.00;;;;;;5035992;28;20883;-69
2022/04/06 09:20:27;;;;;;;6.03;5.43;;;8.60;1.00;;;;;;5035457;28;20229;-69
2022/04/06 09:22:53;;;;;;;5.00;4.50;;;8.60;1.00;;;;;;5035813;28;20506;-73
2022/04/06 09:25:22;;;;;;;4.03;3.10;;;8.60;1.00;;;;;;5035953;28;20177;-73
2022/04/06 09:27:47;;;;;;;5.10;4.70;;;8.60;1.00;;;;;;5034468;28;20203;-69
2022/04/06 09:30:13;;;;;;;4.57;4.20;;;8.70;1.00;;;;;;5035030;28;20428;-69
2022/04/06 09:32:43;;;;;;;4.77;4.47;;;8.70;1.00;;;;;;5034348;28;20187;-67
2022/04/06 09:35:25;;;;;;;3.57;3.37;;;8.70;1.00;;;;;;5035665;28;20921;-73
2022/04/06 09:38:14;;;;;;;5.37;4.03;;;8.70;1.00;;;;;;5035478;28;20407;-70
2022/04/06 09:40:40;;;;;;;4.20;3.90;;;8.70;1.00;;;;;;5034974;28;20915;-69
2022/04/06 09:43:08;;;;;;;4.23;3.60;;;8.70;1.00;;;;;;5035259;28;20434;-74
2022/04/06 09:48:18;;;;;;;4.23;3.90;;;8.70;1.00;;;;;;5035267;28;20449;-73
2022/04/06 09:50:55;;;;;;;4.70;4.20;;;8.70;1.00;;;;;;5034746;28;20407;-74
2022/04/06 09:53:26;;;;;;;4.67;3.93;;;8.70;1.00;;;;;;5033990;28;20202;-69
2022/04/06 09:55:54;;;;;;;4.40;4.00;;;8.70;1.00;;;;;;5035285;28;20402;-74
2022/04/06 09:58:22;;;;;;;4.80;3.50;;;8.70;1.00;;;;;;5035132;28;20425;-68
2022/04/06 10:00:48;;;;;;;3.97;3.57;;;8.70;1.00;;;;;;5033664;28;20422;-74
2022/04/06 10:03:15;;;;;;;4.13;3.83;;;8.70;1.00;;;;;;5035100;28;20922;-68
2022/04/06 10:05:44;;;;;;;6.13;4.90;;;8.70;1.00;;;;;;5035224;28;20497;-74
2022/04/06 10:08:11;;;;;;;4.93;4.43;;;8.70;1.00;;;;;;5035079;28;20966;-73
2022/04/06 10:10:41;;;;;;;6.50;4.73;;;8.70;1.00;;;;;;5034166;28;20514;-69
2022/04/06 10:13:07;;;;;;;4.90;3.90;;;8.80;1.00;;;;;;5033871;28;20475;-76
2022/04/06 10:15:35;;;;;;;4.27;3.87;;;8.80;1.00;;;;;;5034976;28;20745;-74
2022/04/06 10:18:02;;;;;;;8.00;3.80;;;8.90;1.00;;;;;;5034997;28;20490;-70
2022/04/06 10:20:45;;;;;;;4.97;3.70;;;8.90;1.00;;;;;;5033060;28;20446;-70
2022/04/06 10:23:45;;;;;;;3.43;3.23;;;8.90;1.00;;;;;;5034732;28;20426;-69
2022/04/06 10:26:23;;;;;;;4.33;3.93;;;9.00;1.00;;;;;;5033351;28;20436;-69
2022/04/06 10:28:51;;;;;;;5.20;4.70;;;9.00;1.00;;;;;;5032775;28;20518;-70
2022/04/06 10:31:30;;;;;;;4.20;3.90;;;9.00;1.00;;;;;;5034591;28;20494;-73
2022/04/06 10:34:19;;;;;;;3.83;3.50;;;9.10;1.00;;;;;;5034775;28;20485;-71
2022/04/06 10:37:12;;;;;;;5.13;4.07;;;9.00;1.00;;;;;;5034431;28;20464;-69
2022/04/06 10:39:57;;;;;;;4.40;4.00;;;9.00;1.00;;;;;;5033867;28;20422;-75
2022/04/06 10:42:38;;;;;;;3.93;3.63;;;9.10;1.00;;;;;;5033031;28;20439;-74
2022/04/06 10:45:24;;;;;;;5.20;4.13;;;9.10;1.00;;;;;;5034614;28;20408;-68
2022/04/06 10:48:08;;;;;;;3.93;3.73;;;9.10;1.00;;;;;;5032873;28;20979;-74
2022/04/06 10:50:33;;;;;;;5.90;4.67;;;9.10;1.00;;;;;;5033524;28;20428;-70
2022/04/06 10:53:17;;;;;;;3.80;3.50;;;9.20;1.00;;;;;;5034108;28;20503;-69
2022/04/06 10:56:23;;;;;;;3.30;3.10;;;9.20;1.00;;;;;;5033575;28;20165;-74
2022/04/06 10:58:58;;;;;;;3.90;3.60;;;9.20;1.00;;;;;;5033359;28;20398;-70
2022/04/06 11:01:32;;;;;;;4.13;3.80;;;9.20;1.00;;;;;;5034160;28;20426;-74
2022/04/06 11:04:19;;;;;;;3.93;3.30;;;9.10;1.00;;;;;;5034023;28;20403;-70
2022/04/06 11:06:48;;;;;;;4.13;3.73;;;9.10;1.00;;;;;;5033829;28;20442;-70
2022/04/06 11:12:21;;;;;;;4.30;4.00;;;9.10;1.00;;;;;;5034115;28;20565;-73
2022/04/06 11:14:49;;;;;;;4.20;3.80;;;9.20;1.00;;;;;;5032622;28;20402;-71
2022/04/06 11:17:34;;;;;;;3.43;3.23;;;9.20;1.00;;;;;;5033803;28;20407;-70
2022/04/06 11:20:03;;;;;;;3.57;3.27;;;9.10;1.00;;;;;;5033391;28;20392;-70
2022/04/06 11:22:28;;;;;;;4.00;3.60;;;9.10;1.00;;;;;;5033707;28;20424;-77
2022/04/06 11:24:55;;;;;;;4.07;3.77;;;9.20;1.00;;;;;;5033770;28;20452;-74
2022/04/06 11:27:32;;;;;;;4.43;4.10;;;9.10;1.00;;;;;;5033815;28;20279;-69
2022/04/06 11:30:06;;;;;;;3.70;3.40;;;9.00;1.00;;;;;;5031669;28;20423;-75
2022/04/06 11:32:33;;;;;;;3.60;3.30;;;9.00;1.00;;;;;;5033582;28;20492;-69
2022/04/06 11:35:07;;;;;;;3.37;3.17;;;8.90;1.00;;;;;;5033514;28;20444;-74
2022/04/06 11:37:47;;;;;;;4.50;4.20;;;8.90;1.00;;;;;;5033629;28;20429;-70
2022/04/06 11:40:19;;;;;;;3.60;3.40;;;9.00;1.00;;;;;;5032781;28;20402;-72
2022/04/06 11:42:48;;;;;;;3.70;3.50;;;9.10;1.00;;;;;;5033370;28;20427;-75
2022/04/06 11:45:44;;;;;;;5.33;4.10;;;9.00;1.00;;;;;;5033368;28;20485;-68
2022/04/06 11:48:15;;;;;;;3.83;3.57;;;8.90;1.00;;;;;;5033460;28;20807;-74
2022/04/06 11:50:43;;;;;;;4.50;4.20;;;8.90;1.00;;;;;;5032655;28;20400;-69
2022/04/06 11:53:15;;;;;;;4.37;3.57;;;9.00;1.00;;;;;;5033161;28;20392;-72
2022/04/06 11:55:51;;;;;;;3.53;3.23;;;9.00;1.00;;;;;;5033510;28;20409;-70
2022/04/06 11:58:32;;;;;;;3.97;3.70;;;8.90;1.00;;;;;;5033331;28;20410;-68
2022/04/06 12:01:06;;;;;;;6.07;4.70;;;8.90;1.00;;;;;;5033165;28;20411;-73
2022/04/06 12:03:34;;;;;;;3.80;3.53;;;9.00;1.00;;;;;;5033241;28;20413;-73
2022/04/06 12:06:02;;;;;;;4.27;3.97;;;9.00;1.00;;;;;;5033248;28;20407;-73
2022/04/06 12:08:28;;;;;;;4.80;4.40;;;9.00;1.00;;;;;;5037047;28;20451;-74
2022/04/06 12:10:58;;;;;;;4.03;3.60;;;9.00;1.00;;;;;;5037162;28;20414;-71
2022/04/06 12:13:28;;;;;;;4.37;4.07;;;9.00;1.00;;;;;;5037207;28;20846;-75
2022/04/06 12:15:55;;;;;;;3.70;3.50;;;9.10;1.00;;;;;;5037134;28;20394;-75
2022/04/06 12:18:22;;;;;;;3.77;3.47;;;9.20;1.00;;;;;;5037011;28;20490;-76
2022/04/06 12:20:48;;;;;;;3.60;3.27;;;9.30;1.00;;;;;;5036667;28;20438;-77
2022/04/06 12:23:16;;;;;;;3.67;3.47;;;9.40;1.00;;;;;;5036953;28;20418;-76
2022/04/06 12:25:42;;;;;;;3.43;3.23;;;9.40;1.00;;;;;;5036960;28;20409;-76
2022/04/06 12:28:21;;;;;;;4.93;3.43;;;9.30;1.00;;;;;;5035697;28;20448;-76
2022/04/06 12:31:05;;;;;;;3.40;3.10;;;9.30;1.00;;;;;;5036466;28;20399;-71
2022/04/06 12:33:45;;;;;;;3.07;2.87;;;9.40;1.00;;;;;;5036814;28;20404;-73
2022/04/06 12:36:22;;;;;;;6.30;3.43;;;9.40;1.00;;;;;;5035579;28;20941;-76
2022/04/06 12:39:00;;;;;;;4.10;3.67;;;9.40;1.00;;;;;;5036051;28;20779;-77
2022/04/06 12:41:34;;;;;;;4.00;3.73;;;9.30;1.00;;;;;;5036580;28;20430;-73
2022/04/06 12:44:02;;;;;;;3.67;3.37;;;9.10;1.00;;;;;;5036805;28;20487;-69
2022/04/06 12:46:55;;;;;;;4.43;4.13;;;9.00;1.00;;;;;;5036681;28;20402;-73
2022/04/06 12:49:29;;;;;;;7.10;4.70;;;9.00;1.00;;;;;;5034189;28;20458;-69
2022/04/06 12:52:12;;;;;;;4.73;4.20;;;9.00;1.00;;;;;;5036692;28;20429;-68
2022/04/06 12:54:40;;;;;;;5.20;4.80;;;9.00;1.00;;;;;;5035188;28;20432;-74
2022/04/06 12:57:27;;;;;;;6.07;5.20;;;9.00;1.00;;;;;;5036461;28;20411;-71
2022/04/06 12:59:56;;;;;;;9.70;6.23;;;9.00;1.00;;;;;;5034614;28;20473;-68
2022/04/06 13:02:29;;;;;;;9.37;5.43;;;9.10;1.00;;;;;;5036370;28;20419;-74
2022/04/06 13:04:58;;;;;;;6.57;5.60;;;9.10;1.00;;;;;;5036301;28;20491;-76
2022/04/06 13:07:24;;;;;;;7.70;6.27;;;9.20;1.00;;;;;;5036311;28;20444;-74
2022/04/06 13:09:58;;;;;;;6.70;6.10;;;9.20;1.00;;;;;;5035383;28;20455;-76
2022/04/06 13:12:26;;;;;;;7.20;6.10;;;9.30;1.00;;;;;;5036102;28;20670;-76
2022/04/06 13:14:53;;;;;;;8.03;5.90;;;9.40;1.00;;;;;;5036382;28;20376;-74
2022/04/06 13:17:19;;;;;;;5.93;5.40;;;9.40;1.00;;;;;;5036125;28;20418;-67